Terminal Aerodrome Forecast
Issued by NWS Grand Forks, ND

Home | Current Version | Previous Version | Text Only | Print | Product List | Glossary On
Versions: 1 2 3 4 5 6 7 8 9 10 11 12 13 14 15 16 17 18
000
FTUS43 KFGF 232300
TAFFAR
TAF
KFAR 232339Z 2400/2424 12020G28KT P6SM -RA OVC035
      TEMPO 2400/2402 4SM -RA OVC015
     FM240200 12018G26KT P6SM OVC035
     FM240700 12012KT P6SM BKN025=

USA.gov is the U.S. government's official web portal to all federal, state and local government web resources and services.